Main page
METAR-TAF:

METAR-TAF

Airports :

Qurghonteppa International Airport

Qurghonteppa, Tajikistan

latitude: 37-51-44N, longitude: 068-51-46E, elevation: 449 m

Current weather observation

The report was made 18 minutes ago, at 04:00 UTC
Calm wind
Temperature 20°C
Humidity 46%
Pressure 1017 hPa
Visibility 10 km or more
Few clouds at a height of 11000 ft

METAR: UTDT 290400Z 00000MPS 9999 FEW110 20/08 Q1017 R35/CLRD70 RMK QFE723/0965

Time: 09:18 (04:18 UTC)

Forecast

The report was made 1 hour and 16 minutes ago, at 03:02 UTC
Forecast valid from 29 at 04 UTC to 29 at 13 UTC
Wind 4 kt from variable directions
Visibility 10 km or more
Scattered clouds at a height of 6600 ft, Cumulonimbus.
Broken clouds at a height of 10000 ft

TAF: UTDT 290302Z 2904/2913 VRB02MPS 9999 SCT066CB BKN100

Weather observations and forecasts of more than 4000 airports (METAR and TAF reports).

The available stations are represented by yellow and red dots on the map.

Hover mouse over dot to see the name of the station.

Then click to see weather observations and forecasts.

To change the map : click on the green buttons with a black cross to zoom in, on the green button with a dash to zoom out, or on the green arrows for adjacent maps.


METAR-TAF: